Decoded Metar for KHNZ (HENDERSON/OXFORD in NC, USA) (IATA:HNZ) | Meteo·Mobile Aviation Weather
aviador You're here:

KHNZ Decoded Metar

HENDERSON/OXFORD in NC, USA
Report Time2019-04-21 00:00:00
UTC Time2019-04-21 00:23:39
Flight Rules vfr VFR
Wind220° at 05 kt
W.Decomp.*RWY 24: 4.9 kt HW 1.1 kt LCW
Visibility9999 m
Phenomena:N/A
Clouds:Broken 060 Hf
Broken 080 Hf
Expected CloudBase > 1,600 ft AGL from Temp-Dew spread
Ceiling6,000 ft
Temp10°C (ISA -4)
Dew Point06°C (76% RH)
AAT7.3°C
QNH1010 hPa
Density Alt285 ft
Elevation528 ft
Report Wrong Elevation
Raw Report
METAR KHNZ 210000Z AUTO 22005KT 10SM BKN060 BKN080 10/06 A2982 RMK
AO2 T00960064=

Extra information for KHNZ:More info

Metar Taf Metar & Taf Last 4 Metars F.Rules Stats Wind Profile Meteogram Temp Stats Airport Information Weather charts Add Link Nearby VenuesMetar ALERT Operation Metar Decoded Social comments

AIRNAV info for KHNZ